createdAt,value
2019-03-31T00:01:14.499Z,79.60
2019-03-31T00:03:22.788Z,78.80
2019-03-31T00:05:30.984Z,77.30
2019-03-31T00:07:39.211Z,75.03
2019-03-31T00:09:47.468Z,79.03
2019-03-31T00:11:55.737Z,79.20
2019-03-31T00:14:03.956Z,80.40
2019-03-31T00:16:12.329Z,77.37
2019-03-31T00:18:20.515Z,76.03
2019-03-31T00:20:28.795Z,74.97
2019-03-31T00:22:36.978Z,73.87
2019-03-31T00:24:45.377Z,73.83
2019-03-31T00:26:53.663Z,72.00
2019-03-31T00:29:01.862Z,72.93
2019-03-31T00:31:21.417Z,71.90
2019-03-31T00:33:20.180Z,71.43
2019-03-31T00:35:28.394Z,71.63
2019-03-31T00:37:36.679Z,71.20
2019-03-31T00:39:44.982Z,73.37
2019-03-31T00:41:53.155Z,71.83
2019-03-31T00:44:01.326Z,71.27
2019-03-31T00:46:09.560Z,71.80
2019-03-31T00:48:17.823Z,71.40
2019-03-31T00:50:26.078Z,71.00
2019-03-31T00:52:34.278Z,71.33
2019-03-31T00:54:42.510Z,70.03
2019-03-31T00:56:50.765Z,69.10
2019-03-31T00:58:59.020Z,71.83
2019-03-31T01:01:36.256Z,70.63
2019-03-31T01:03:39.147Z,68.50
2019-03-31T01:05:47.821Z,69.97
2019-03-31T01:07:56.756Z,71.63
2019-03-31T01:10:06.143Z,70.90
2019-03-31T01:12:14.826Z,73.30
2019-03-31T01:14:23.627Z,72.03
2019-03-31T01:16:34.008Z,70.70
2019-03-31T01:18:42.332Z,72.63
2019-03-31T01:20:50.878Z,73.53
2019-03-31T01:22:59.027Z,75.57
2019-03-31T01:25:08.452Z,73.37
2019-03-31T01:27:18.785Z,74.60
2019-03-31T01:29:26.986Z,73.73
2019-03-31T01:31:49.241Z,74.80
2019-03-31T01:33:45.353Z,72.77
2019-03-31T01:35:53.704Z,71.53
2019-03-31T01:38:01.961Z,72.57
2019-03-31T01:40:10.404Z,68.70
2019-03-31T01:42:18.558Z,67.07
2019-03-31T01:44:26.941Z,67.23
2019-03-31T01:46:35.143Z,66.43
2019-03-31T01:48:43.367Z,64.70
2019-03-31T01:50:51.543Z,68.07
2019-03-31T01:52:59.792Z,68.47
2019-03-31T01:55:08.949Z,63.57
2019-03-31T01:57:17.166Z,64.50
2019-03-31T01:59:25.387Z,62.47
2019-03-31T02:01:33.718Z,63.73
2019-03-31T02:03:41.932Z,63.97
2019-03-31T02:05:50.276Z,65.37
2019-03-31T02:07:58.481Z,64.67
2019-03-31T02:10:07.840Z,63.03
2019-03-31T02:12:16.032Z,65.63
2019-03-31T02:14:24.259Z,62.77
2019-03-31T02:16:32.457Z,61.93
2019-03-31T02:18:40.660Z,61.10
2019-03-31T02:20:48.864Z,62.50
2019-03-31T02:22:57.309Z,61.73
2019-03-31T02:25:05.891Z,61.77
2019-03-31T02:27:14.083Z,61.37
2019-03-31T02:29:22.339Z,60.67
2019-03-31T02:31:30.564Z,58.53
2019-03-31T02:33:38.764Z,59.97
2019-03-31T02:35:47.111Z,57.33
2019-03-31T02:37:55.292Z,61.07
2019-03-31T02:40:03.496Z,59.07
2019-03-31T02:42:11.701Z,57.07
2019-03-31T02:44:19.875Z,59.47
2019-03-31T02:46:28.188Z,59.70
2019-03-31T02:48:36.400Z,58.47
2019-03-31T02:50:52.411Z,58.33
2019-03-31T02:53:00.932Z,56.90
2019-03-31T02:55:09.291Z,55.43
2019-03-31T02:57:19.686Z,56.13
2019-03-31T02:59:29.601Z,56.13
2019-03-31T03:01:39.002Z,56.10
2019-03-31T03:03:50.153Z,53.67
2019-03-31T03:06:01.806Z,53.47
2019-03-31T03:08:11.460Z,54.83
2019-03-31T03:10:21.024Z,55.07
2019-03-31T03:12:33.600Z,52.63
2019-03-31T03:14:43.555Z,52.20
2019-03-31T03:16:51.853Z,52.47
2019-03-31T03:19:00.368Z,50.80
2019-03-31T03:21:08.563Z,50.77
2019-03-31T03:23:16.744Z,50.40
2019-03-31T03:25:24.953Z,51.03
2019-03-31T03:27:33.146Z,50.43
2019-03-31T03:29:41.400Z,49.63
2019-03-31T03:31:49.674Z,49.60
2019-03-31T03:33:58.759Z,49.87
2019-03-31T03:36:06.946Z,48.73
2019-03-31T03:38:15.119Z,49.73
2019-03-31T03:40:23.303Z,49.00
2019-03-31T03:42:31.500Z,49.10
2019-03-31T03:44:39.683Z,47.97
2019-03-31T03:46:47.843Z,48.03
2019-03-31T03:48:56.129Z,47.80
2019-03-31T03:51:04.265Z,49.47
2019-03-31T03:53:12.415Z,47.33
2019-03-31T03:55:20.644Z,47.87
2019-03-31T03:57:28.842Z,47.03
2019-03-31T03:59:37.060Z,46.10
2019-03-31T04:01:45.570Z,48.63
2019-03-31T04:03:53.779Z,47.00
2019-03-31T04:06:01.985Z,46.33
2019-03-31T04:08:10.210Z,45.80
2019-03-31T04:11:21.241Z,47.27
2019-03-31T04:13:27.157Z,44.87
2019-03-31T04:15:35.335Z,45.60
2019-03-31T04:17:43.501Z,44.90
2019-03-31T04:19:51.714Z,47.53
2019-03-31T04:21:59.886Z,43.27
2019-03-31T04:24:08.083Z,42.97
2019-03-31T04:26:16.388Z,45.27
2019-03-31T04:28:24.563Z,44.47
2019-03-31T04:30:32.730Z,46.27
2019-03-31T04:32:40.905Z,44.17
2019-03-31T04:34:49.079Z,45.03
2019-03-31T04:36:57.258Z,45.93
2019-03-31T04:39:07.250Z,44.93
2019-03-31T04:41:15.561Z,45.23
2019-03-31T04:43:23.843Z,47.50
2019-03-31T04:45:32.166Z,44.37
2019-03-31T04:47:40.585Z,46.47
2019-03-31T04:49:48.825Z,45.27
2019-03-31T04:51:56.995Z,44.10
2019-03-31T04:54:05.304Z,44.53
2019-03-31T04:56:13.447Z,45.07
2019-03-31T04:58:21.626Z,44.33
2019-03-31T05:00:29.821Z,44.07
2019-03-31T05:02:37.961Z,45.13
2019-03-31T05:04:46.191Z,46.70
2019-03-31T05:06:54.383Z,46.97
2019-03-31T05:09:02.630Z,48.87
2019-03-31T05:11:10.819Z,49.73
2019-03-31T05:13:19.011Z,50.73
2019-03-31T05:15:27.270Z,48.80
2019-03-31T05:17:36.019Z,50.23
2019-03-31T05:19:44.398Z,48.20
2019-03-31T05:21:52.676Z,47.07
2019-03-31T05:24:00.834Z,46.93
2019-03-31T05:26:09.059Z,45.70
2019-03-31T05:28:17.201Z,42.27
2019-03-31T05:30:25.438Z,40.30
2019-03-31T05:32:33.640Z,39.73
2019-03-31T05:34:41.892Z,40.80
2019-03-31T05:36:50.213Z,40.40
2019-03-31T05:38:58.427Z,38.87
2019-03-31T05:41:06.629Z,39.13
2019-03-31T05:43:14.886Z,37.07
2019-03-31T05:45:23.086Z,36.17
2019-03-31T05:47:31.260Z,36.70
2019-03-31T05:49:39.396Z,37.73
2019-03-31T05:51:47.631Z,37.97
2019-03-31T05:53:55.896Z,36.40
2019-03-31T05:56:04.580Z,37.43
2019-03-31T05:58:12.773Z,38.37
2019-03-31T06:00:54.696Z,39.13
2019-03-31T06:03:02.919Z,37.63
2019-03-31T06:05:11.249Z,37.47
2019-03-31T06:07:19.463Z,37.10
2019-03-31T06:09:27.678Z,37.93
2019-03-31T06:11:35.836Z,37.90
2019-03-31T06:13:44.158Z,36.80
2019-03-31T06:15:52.368Z,36.30
2019-03-31T06:18:00.572Z,35.77
2019-03-31T06:20:09.235Z,36.13
2019-03-31T06:22:17.527Z,35.87
2019-03-31T06:24:25.760Z,34.97
2019-03-31T06:26:34.041Z,34.57
2019-03-31T06:28:42.241Z,33.40
2019-03-31T06:30:50.597Z,33.87
2019-03-31T06:32:58.933Z,32.63
2019-03-31T06:35:07.914Z,32.53
2019-03-31T06:37:16.222Z,32.77
2019-03-31T06:39:24.454Z,31.80
2019-03-31T06:41:32.765Z,31.57
2019-03-31T06:43:40.931Z,31.47
2019-03-31T06:45:49.212Z,32.60
2019-03-31T06:47:58.030Z,33.70
2019-03-31T06:50:07.251Z,32.50
2019-03-31T06:52:15.596Z,31.73
2019-03-31T06:54:23.885Z,31.33
2019-03-31T06:56:32.243Z,31.30
2019-03-31T06:58:40.431Z,29.30
2019-03-31T07:00:48.739Z,30.73
2019-03-31T07:02:57.038Z,29.70
2019-03-31T07:05:05.961Z,28.20
2019-03-31T07:07:14.181Z,30.03
2019-03-31T07:09:22.422Z,29.77
2019-03-31T07:11:30.909Z,28.20
2019-03-31T07:13:39.211Z,27.40
2019-03-31T07:15:47.553Z,27.10
2019-03-31T07:17:55.777Z,26.53
2019-03-31T07:20:03.989Z,26.83
2019-03-31T07:22:12.257Z,26.50
2019-03-31T07:24:20.466Z,25.47
2019-03-31T07:26:28.924Z,25.10
2019-03-31T07:28:37.210Z,24.57
2019-03-31T07:30:45.488Z,24.33
2019-03-31T07:32:53.797Z,24.30
2019-03-31T07:35:02.065Z,23.60
2019-03-31T07:37:10.449Z,23.53
2019-03-31T07:39:18.960Z,23.10
2019-03-31T07:41:27.566Z,22.17
2019-03-31T07:43:35.922Z,21.60
2019-03-31T07:45:44.171Z,23.07
2019-03-31T07:47:52.551Z,21.03
2019-03-31T07:50:00.973Z,21.13
2019-03-31T07:52:09.308Z,23.20
2019-03-31T07:54:17.518Z,21.90
2019-03-31T07:56:25.843Z,21.37
2019-03-31T07:58:34.318Z,21.87
2019-03-31T08:00:42.721Z,20.80
2019-03-31T08:02:51.352Z,21.33
2019-03-31T08:04:59.642Z,21.70
2019-03-31T08:07:07.821Z,22.53
2019-03-31T08:09:16.213Z,22.07
2019-03-31T08:11:24.550Z,20.60
2019-03-31T08:13:32.812Z,26.03
2019-03-31T08:15:41.076Z,21.60
2019-03-31T08:17:49.509Z,22.90
2019-03-31T08:19:57.753Z,22.73
2019-03-31T08:22:06.454Z,22.60
2019-03-31T08:24:14.885Z,22.57
2019-03-31T08:26:23.288Z,22.60
2019-03-31T08:28:31.662Z,22.97
2019-03-31T08:30:40.141Z,23.70
2019-03-31T08:32:48.459Z,22.60
2019-03-31T08:34:56.922Z,24.53
2019-03-31T08:37:05.385Z,24.73
2019-03-31T08:39:13.733Z,25.20
2019-03-31T08:41:22.014Z,25.93
2019-03-31T08:43:30.288Z,27.60
2019-03-31T08:45:38.656Z,64.23
2019-03-31T08:47:46.942Z,133.17
2019-03-31T08:49:55.332Z,187.53
2019-03-31T08:52:03.815Z,39.07
2019-03-31T08:54:12.268Z,30.07
2019-03-31T08:56:20.727Z,25.67
2019-03-31T08:58:29.603Z,26.77
2019-03-31T09:00:49.013Z,25.43
2019-03-31T09:02:57.636Z,25.63
2019-03-31T09:05:07.766Z,27.03
2019-03-31T09:07:16.082Z,26.87
2019-03-31T09:09:24.571Z,28.77
2019-03-31T09:11:32.981Z,27.57
2019-03-31T09:13:41.446Z,26.13
2019-03-31T09:15:49.847Z,27.37
2019-03-31T09:17:59.903Z,26.67
2019-03-31T09:20:09.508Z,24.77
2019-03-31T09:22:17.995Z,26.63
2019-03-31T09:24:26.532Z,27.43
2019-03-31T09:26:34.995Z,24.60
2019-03-31T09:28:43.417Z,24.37
2019-03-31T09:30:51.831Z,23.60
2019-03-31T09:33:00.477Z,24.73
2019-03-31T09:35:11.348Z,24.83
2019-03-31T09:37:19.937Z,25.10
2019-03-31T09:39:28.587Z,26.23
2019-03-31T09:41:37.032Z,24.90
2019-03-31T09:43:45.491Z,24.20
2019-03-31T09:45:53.949Z,26.87
2019-03-31T09:48:02.385Z,25.17
2019-03-31T09:50:16.995Z,25.73
2019-03-31T09:52:23.661Z,25.37
2019-03-31T09:54:32.006Z,25.90
2019-03-31T09:56:40.493Z,28.23
2019-03-31T09:58:48.945Z,26.83
2019-03-31T10:00:57.590Z,28.27
2019-03-31T10:03:05.909Z,26.73
2019-03-31T10:05:14.937Z,27.97
2019-03-31T10:07:23.950Z,26.30
2019-03-31T10:09:32.460Z,27.00
2019-03-31T10:11:40.705Z,29.20
2019-03-31T10:13:48.941Z,33.80
2019-03-31T10:15:57.174Z,41.60
2019-03-31T10:18:05.603Z,42.40
2019-03-31T10:20:14.099Z,27.87
2019-03-31T10:22:22.668Z,27.43
2019-03-31T10:24:31.557Z,27.13
2019-03-31T10:26:39.927Z,26.57
2019-03-31T10:28:48.317Z,27.10
2019-03-31T10:30:56.856Z,25.83
2019-03-31T10:33:05.710Z,25.77
2019-03-31T10:35:14.379Z,26.23
2019-03-31T10:37:22.717Z,26.57
2019-03-31T10:39:30.985Z,28.10
2019-03-31T10:41:39.667Z,27.50
2019-03-31T10:43:47.963Z,27.00
2019-03-31T10:45:56.247Z,26.30
2019-03-31T10:48:19.286Z,29.23
2019-03-31T10:50:15.327Z,26.90
2019-03-31T10:52:24.118Z,29.60
2019-03-31T10:54:32.674Z,27.57
2019-03-31T10:56:41.168Z,27.63
2019-03-31T10:58:49.608Z,28.23
2019-03-31T11:00:57.951Z,28.67
2019-03-31T11:03:09.046Z,29.33
2019-03-31T11:05:18.259Z,28.93
2019-03-31T11:07:26.745Z,29.17
2019-03-31T11:09:35.252Z,32.40
2019-03-31T11:11:43.488Z,31.33
2019-03-31T11:13:52.972Z,33.27
2019-03-31T11:16:01.357Z,30.10
2019-03-31T11:18:09.862Z,31.90
2019-03-31T11:20:18.319Z,29.03
2019-03-31T11:22:37.294Z,29.90
2019-03-31T11:24:46.012Z,33.37
2019-03-31T11:26:54.884Z,33.60
2019-03-31T11:29:04.585Z,33.63
2019-03-31T11:31:13.153Z,32.20
2019-03-31T11:33:21.910Z,33.23
2019-03-31T11:35:30.443Z,33.43
2019-03-31T11:37:39.378Z,31.17
2019-03-31T11:39:48.242Z,32.03
2019-03-31T11:41:56.716Z,28.50
2019-03-31T11:44:05.641Z,29.30
2019-03-31T11:46:14.229Z,28.27
2019-03-31T11:48:23.325Z,28.10
2019-03-31T11:50:31.861Z,30.97
2019-03-31T11:52:40.263Z,31.53
2019-03-31T11:54:49.165Z,28.30
2019-03-31T11:56:57.576Z,27.98
2019-03-31T11:59:06.409Z,28.13
2019-03-31T12:01:14.946Z,29.37
2019-03-31T12:03:23.612Z,29.27
2019-03-31T12:05:32.437Z,27.53
2019-03-31T12:07:47.105Z,28.00
2019-03-31T12:09:51.275Z,32.50
2019-03-31T12:11:59.845Z,29.80
2019-03-31T12:14:08.950Z,26.37
2019-03-31T12:16:17.934Z,27.80
2019-03-31T12:18:26.869Z,27.53
2019-03-31T12:20:35.442Z,32.30
2019-03-31T12:22:43.877Z,29.23
2019-03-31T12:24:52.162Z,27.63
2019-03-31T12:27:00.576Z,26.70
2019-03-31T12:29:08.858Z,27.07
2019-03-31T12:31:18.432Z,27.17
2019-03-31T12:33:26.792Z,30.30
2019-03-31T12:35:35.041Z,30.47
2019-03-31T12:37:43.642Z,29.40
2019-03-31T12:39:52.535Z,32.28
2019-03-31T12:42:00.848Z,28.62
2019-03-31T12:44:09.129Z,27.82
2019-03-31T12:46:17.541Z,30.30
2019-03-31T12:48:25.915Z,36.17
2019-03-31T12:50:34.293Z,29.07
2019-03-31T12:52:47.504Z,27.62
2019-03-31T12:54:52.664Z,27.13
2019-03-31T12:57:01.377Z,28.20
2019-03-31T12:59:10.063Z,41.23
2019-03-31T13:01:18.422Z,29.57
2019-03-31T13:03:26.843Z,62.78
2019-03-31T13:05:35.185Z,29.10
2019-03-31T13:07:55.676Z,26.50
2019-03-31T13:09:54.105Z,27.80
2019-03-31T13:12:02.451Z,28.47
2019-03-31T13:14:10.663Z,27.83
2019-03-31T13:16:18.929Z,28.30
2019-03-31T13:18:28.191Z,28.17
2019-03-31T13:20:36.697Z,27.50
2019-03-31T13:22:45.962Z,27.20
2019-03-31T13:24:54.516Z,27.40
2019-03-31T13:27:03.106Z,27.10
2019-03-31T13:29:11.411Z,25.20
2019-03-31T13:31:19.816Z,26.47
2019-03-31T13:33:28.107Z,25.70
2019-03-31T13:35:36.396Z,25.07
2019-03-31T13:37:45.078Z,24.10
2019-03-31T13:39:53.441Z,24.10
2019-03-31T13:42:01.843Z,24.70
2019-03-31T13:44:10.031Z,24.27
2019-03-31T13:46:18.234Z,26.23
2019-03-31T13:48:26.414Z,25.15
2019-03-31T13:50:34.651Z,23.73
2019-03-31T13:52:43.008Z,25.60
2019-03-31T13:54:51.261Z,25.50
2019-03-31T13:56:59.680Z,24.43
2019-03-31T13:59:09.229Z,25.00
2019-03-31T14:01:17.802Z,23.73
2019-03-31T14:03:26.089Z,22.73
2019-03-31T14:05:34.434Z,23.27
2019-03-31T14:07:42.761Z,23.10
2019-03-31T14:09:51.089Z,23.30
2019-03-31T14:12:00.106Z,25.27
2019-03-31T14:14:08.443Z,21.60
2019-03-31T14:16:16.733Z,20.63
2019-03-31T14:18:25.001Z,18.17
2019-03-31T14:20:33.390Z,18.43
2019-03-31T14:22:41.859Z,17.13
2019-03-31T14:24:50.335Z,17.73
2019-03-31T14:26:58.659Z,16.77
2019-03-31T14:29:07.082Z,15.63
2019-03-31T14:31:15.388Z,79.50
2019-03-31T14:33:23.808Z,176.77
2019-03-31T14:35:32.314Z,140.90
2019-03-31T14:37:40.624Z,35.03
2019-03-31T14:39:48.878Z,53.50
2019-03-31T14:41:57.326Z,40.17
2019-03-31T14:44:06.103Z,42.83
2019-03-31T14:46:14.434Z,28.17
2019-03-31T14:48:22.657Z,19.07
2019-03-31T14:50:36.880Z,13.70
2019-03-31T14:52:46.079Z,12.20
2019-03-31T14:54:55.992Z,11.00
2019-03-31T14:57:06.041Z,10.93
2019-03-31T14:59:15.203Z,10.97
2019-03-31T15:01:25.237Z,9.33
2019-03-31T15:03:37.482Z,10.27
2019-03-31T15:05:47.064Z,10.80
2019-03-31T15:07:58.539Z,9.93
2019-03-31T15:10:06.758Z,9.87
2019-03-31T15:12:15.060Z,10.00
2019-03-31T15:14:23.394Z,9.67
2019-03-31T15:16:31.917Z,8.97
2019-03-31T15:18:40.401Z,9.87
2019-03-31T15:20:48.997Z,9.83
2019-03-31T15:23:02.634Z,8.60
2019-03-31T15:25:11.442Z,9.63
2019-03-31T15:27:19.837Z,8.30
2019-03-31T15:29:29.098Z,8.40
2019-03-31T15:31:37.538Z,8.13
2019-03-31T15:33:46.292Z,7.93
2019-03-31T15:35:54.608Z,8.07
2019-03-31T15:38:03.780Z,7.70
2019-03-31T15:40:12.349Z,8.03
2019-03-31T15:42:20.975Z,7.97
2019-03-31T15:44:30.276Z,7.97
2019-03-31T15:46:38.622Z,7.70
2019-03-31T15:48:47.356Z,7.40
2019-03-31T15:50:55.956Z,7.57
2019-03-31T15:53:04.530Z,6.77
2019-03-31T15:55:14.111Z,7.20
2019-03-31T15:57:22.611Z,6.10
2019-03-31T15:59:30.991Z,6.40
2019-03-31T16:01:39.262Z,5.70
2019-03-31T16:03:47.553Z,5.73
2019-03-31T16:05:55.774Z,5.67
2019-03-31T16:08:03.573Z,5.80
2019-03-31T16:10:11.443Z,5.60
2019-03-31T16:12:18.888Z,5.97
2019-03-31T16:14:27.089Z,6.53
2019-03-31T16:16:34.522Z,5.30
2019-03-31T16:18:41.971Z,5.03
2019-03-31T16:20:49.390Z,4.60
2019-03-31T16:22:57.848Z,5.07
2019-03-31T16:25:09.986Z,4.57
2019-03-31T16:27:17.761Z,3.83
2019-03-31T16:29:25.582Z,4.13
2019-03-31T16:31:33.237Z,5.00
2019-03-31T16:33:40.795Z,4.23
2019-03-31T16:35:48.394Z,5.90
2019-03-31T16:37:56.252Z,4.43
2019-03-31T16:40:03.953Z,4.00
2019-03-31T16:42:11.821Z,4.00
2019-03-31T16:44:19.573Z,3.90
2019-03-31T16:46:27.130Z,4.10
2019-03-31T16:48:34.841Z,3.93
2019-03-31T16:50:42.572Z,3.97
2019-03-31T16:52:52.653Z,3.53
2019-03-31T16:55:00.091Z,3.97
2019-03-31T16:57:07.624Z,3.80
2019-03-31T16:59:15.270Z,5.67
2019-03-31T17:01:22.911Z,7.10
2019-03-31T17:03:30.847Z,6.70
2019-03-31T17:05:38.395Z,4.57
2019-03-31T17:07:46.340Z,4.57
2019-03-31T17:09:53.923Z,6.60
2019-03-31T17:12:02.113Z,10.97
2019-03-31T17:14:09.583Z,6.30
2019-03-31T17:16:17.435Z,7.60
2019-03-31T17:18:25.181Z,9.00
2019-03-31T17:20:32.855Z,9.27
2019-03-31T17:22:40.748Z,13.47
2019-03-31T17:24:48.610Z,11.67
2019-03-31T17:26:56.223Z,14.73
2019-03-31T17:29:04.298Z,12.67
2019-03-31T17:31:11.906Z,13.37
2019-03-31T17:33:19.584Z,11.30
2019-03-31T17:35:27.760Z,21.27
2019-03-31T17:37:35.747Z,19.43
2019-03-31T17:39:43.511Z,16.50
2019-03-31T17:41:51.461Z,13.47
2019-03-31T17:43:59.402Z,18.20
2019-03-31T17:46:07.280Z,16.77
2019-03-31T17:48:14.939Z,12.10
2019-03-31T17:50:22.502Z,12.43
2019-03-31T17:52:30.220Z,12.07
2019-03-31T17:54:38.020Z,12.57
2019-03-31T17:56:46.393Z,9.90
2019-03-31T17:58:54.470Z,6.63
2019-03-31T18:01:02.083Z,7.47
2019-03-31T18:03:09.707Z,6.43
2019-03-31T18:05:17.901Z,7.33
2019-03-31T18:07:25.591Z,7.17
2019-03-31T18:09:33.199Z,6.30
2019-03-31T18:11:40.876Z,6.33
2019-03-31T18:13:48.439Z,12.13
2019-03-31T18:15:56.119Z,9.57
2019-03-31T18:18:03.630Z,22.13
2019-03-31T18:20:11.756Z,11.73
2019-03-31T18:22:19.501Z,13.53
2019-03-31T18:24:27.288Z,39.80
2019-03-31T18:26:34.964Z,33.03
2019-03-31T18:28:43.840Z,33.73
2019-03-31T18:30:52.114Z,39.17
2019-03-31T18:32:59.754Z,11.57
2019-03-31T18:35:08.360Z,31.80
2019-03-31T18:37:16.679Z,23.10
2019-03-31T18:39:24.355Z,14.43
2019-03-31T18:41:32.218Z,14.60
2019-03-31T18:43:50.658Z,28.53
2019-03-31T18:45:48.995Z,16.13
2019-03-31T18:47:56.495Z,20.80
2019-03-31T18:50:04.149Z,10.50
2019-03-31T18:52:11.753Z,8.23
2019-03-31T18:54:40.848Z,9.60
2019-03-31T18:57:03.029Z,8.23
2019-03-31T18:59:27.964Z,8.00
2019-03-31T19:01:42.531Z,5.87
2019-03-31T19:04:07.877Z,4.70
2019-03-31T19:06:33.009Z,5.30
2019-03-31T19:09:05.782Z,3.97
2019-03-31T19:11:35.138Z,4.43
2019-03-31T19:14:01.556Z,4.67
2019-03-31T19:16:22.127Z,4.33
2019-03-31T19:18:40.644Z,4.60
2019-03-31T19:21:10.875Z,4.97
2019-03-31T19:23:36.516Z,4.63
2019-03-31T19:26:15.239Z,6.10
2019-03-31T19:28:36.096Z,4.83
2019-03-31T19:31:05.469Z,5.63
2019-03-31T19:33:30.727Z,5.57
2019-03-31T19:35:47.053Z,6.90
2019-03-31T19:38:13.989Z,8.60
2019-03-31T19:40:33.009Z,5.47
2019-03-31T19:43:14.753Z,6.80
2019-03-31T19:45:37.931Z,5.90
2019-03-31T19:47:51.110Z,9.33
2019-03-31T19:50:09.180Z,6.47
2019-03-31T19:52:38.459Z,5.40
2019-03-31T19:55:04.706Z,5.57
2019-03-31T19:57:40.220Z,5.40
2019-03-31T20:00:04.042Z,6.40
2019-03-31T20:02:29.216Z,6.00
2019-03-31T20:05:14.022Z,4.90
2019-03-31T20:07:29.003Z,4.40
2019-03-31T20:09:55.251Z,4.80
2019-03-31T20:12:27.732Z,4.23
2019-03-31T20:14:54.787Z,4.17
2019-03-31T20:17:12.024Z,3.60
2019-03-31T20:19:38.215Z,4.07
2019-03-31T20:21:54.032Z,4.62
2019-03-31T20:24:19.116Z,3.57
2019-03-31T20:26:45.200Z,3.20
2019-03-31T20:29:10.686Z,3.63
2019-03-31T20:31:31.599Z,3.07
2019-03-31T20:34:01.160Z,2.43
2019-03-31T20:36:26.347Z,2.40
2019-03-31T20:39:03.160Z,2.13
2019-03-31T20:41:47.786Z,2.00
2019-03-31T20:43:54.186Z,2.50
2019-03-31T20:46:04.326Z,2.40
2019-03-31T20:48:11.717Z,2.23
2019-03-31T20:50:19.534Z,2.50
2019-03-31T20:52:28.263Z,2.30
2019-03-31T20:54:36.401Z,2.33
2019-03-31T20:56:44.149Z,2.33
2019-03-31T20:58:52.241Z,2.10
2019-03-31T21:00:59.855Z,2.17
2019-03-31T21:03:07.653Z,2.37
2019-03-31T21:05:15.315Z,2.13
2019-03-31T21:07:22.839Z,2.10
2019-03-31T21:09:44.293Z,2.10
2019-03-31T21:11:40.099Z,2.07
2019-03-31T21:13:47.609Z,1.97
2019-03-31T21:15:55.262Z,1.90
2019-03-31T21:18:02.824Z,2.67
2019-03-31T21:20:11.010Z,2.30
2019-03-31T21:22:18.581Z,2.50
2019-03-31T21:24:26.025Z,2.30
2019-03-31T21:26:33.529Z,2.23
2019-03-31T21:28:41.023Z,2.13
2019-03-31T21:30:48.596Z,2.20
2019-03-31T21:32:56.197Z,2.43
2019-03-31T21:35:03.672Z,2.23
2019-03-31T21:37:11.424Z,2.10
2019-03-31T21:39:19.615Z,2.60
2019-03-31T21:41:27.189Z,2.17
2019-03-31T21:43:34.606Z,2.87
2019-03-31T21:45:42.070Z,3.63
2019-03-31T21:47:49.497Z,2.37
2019-03-31T21:49:56.914Z,3.57
2019-03-31T21:52:04.324Z,2.63
2019-03-31T21:54:11.875Z,2.40
2019-03-31T21:56:19.372Z,2.37
2019-03-31T21:58:26.965Z,14.27
2019-03-31T22:00:49.187Z,18.63
2019-03-31T22:02:56.680Z,9.17
2019-03-31T22:05:04.315Z,12.03
2019-03-31T22:07:11.962Z,36.80
2019-03-31T22:09:19.694Z,36.73
2019-03-31T22:11:27.341Z,25.83
2019-03-31T22:13:34.877Z,24.13
2019-03-31T22:15:42.281Z,16.43
2019-03-31T22:17:49.945Z,19.47
2019-03-31T22:19:57.393Z,12.47
2019-03-31T22:22:04.889Z,11.80
2019-03-31T22:24:12.343Z,10.30
2019-03-31T22:26:20.132Z,10.57
2019-03-31T22:28:27.734Z,8.23
2019-03-31T22:30:37.956Z,8.20
2019-03-31T22:32:45.577Z,7.73
2019-03-31T22:34:53.057Z,7.97
2019-03-31T22:37:00.444Z,6.13
2019-03-31T22:39:09.091Z,5.40
2019-03-31T22:41:16.482Z,7.43
2019-03-31T22:43:23.910Z,7.00
2019-03-31T22:45:31.314Z,10.87
2019-03-31T22:47:38.800Z,11.93
2019-03-31T22:49:46.199Z,10.43
2019-03-31T22:51:56.410Z,8.93
2019-03-31T22:54:02.798Z,7.70
2019-03-31T22:56:12.709Z,6.10
2019-03-31T22:58:20.051Z,6.53
2019-03-31T23:00:28.872Z,6.63
2019-03-31T23:02:36.318Z,7.40
2019-03-31T23:04:43.715Z,8.33
2019-03-31T23:06:51.184Z,8.90
2019-03-31T23:08:58.611Z,9.40
2019-03-31T23:11:06.378Z,9.57
2019-03-31T23:13:13.738Z,7.73
2019-03-31T23:15:21.227Z,12.80
2019-03-31T23:17:28.618Z,17.53
2019-03-31T23:19:35.979Z,11.30
2019-03-31T23:21:43.325Z,15.80
2019-03-31T23:23:50.720Z,8.90
2019-03-31T23:25:58.058Z,8.77
2019-03-31T23:28:05.452Z,6.90
2019-03-31T23:30:13.613Z,9.40
2019-03-31T23:32:20.987Z,33.97
2019-03-31T23:34:28.401Z,89.07
2019-03-31T23:36:35.832Z,116.53
2019-03-31T23:38:43.250Z,121.77
2019-03-31T23:40:50.706Z,93.20
2019-03-31T23:42:58.085Z,53.17
2019-03-31T23:45:06.077Z,40.77
2019-03-31T23:47:13.518Z,32.47
2019-03-31T23:49:20.904Z,21.10
2019-03-31T23:51:28.250Z,14.73
2019-03-31T23:53:35.638Z,31.00
2019-03-31T23:55:43.028Z,22.30
2019-03-31T23:57:50.404Z,21.87
2019-03-31T23:59:57.800Z,16.50
